Time;durP1;ratioP1;P1;durP2;ratioP2;P2;SDS_P1;SDS_P2;PMS_P1;PMS_P2;Temp;Humidity;BMP_temperature;BMP_pressure;BME280_temperature;BME280_humidity;BME280_pressure;Samples;Min_cycle;Max_cycle;Signal;HPM_P1;HPM_P2
2022/04/05 00:01:14;;;;;;;22.15;15.35;;;;;;;9.51;86.27;100463.53;5050383;28;20040;-61
2022/04/05 00:03:42;;;;;;;28.23;16.10;;;;;;;9.53;86.35;100468.81;5040243;28;20481;-63
2022/04/05 00:06:07;;;;;;;25.35;15.90;;;;;;;9.54;86.73;100467.69;5028836;28;20037;-61
2022/04/05 00:08:34;;;;;;;22.83;14.98;;;;;;;9.54;86.54;100459.38;5047528;28;20037;-61
2022/04/05 00:10:59;;;;;;;26.88;15.27;;;;;;;9.56;85.97;100460.00;5041882;28;20399;-61
2022/04/05 00:13:24;;;;;;;24.23;14.52;;;;;;;9.55;86.43;100469.41;5030582;28;20048;-61
2022/04/05 00:15:50;;;;;;;30.05;14.57;;;;;;;9.54;86.18;100464.94;5030851;28;20025;-62
2022/04/05 00:18:15;;;;;;;23.58;14.20;;;;;;;9.53;86.56;100466.88;5030994;28;20037;-64
2022/04/05 00:20:43;;;;;;;24.88;13.32;;;;;;;9.54;86.51;100471.31;5023474;28;20365;-62
2022/04/05 00:23:08;;;;;;;22.20;13.07;;;;;;;9.53;86.62;100471.56;5030028;28;20033;-61
2022/04/05 00:25:34;;;;;;;23.20;12.43;;;;;;;9.53;86.75;100477.94;5024074;28;20072;-62
2022/04/05 00:27:59;;;;;;;20.92;12.85;;;;;;;9.54;86.24;100474.06;5029710;28;20075;-62
2022/04/05 00:30:25;;;;;;;25.45;13.30;;;;;;;9.55;86.50;100473.00;5029747;28;20025;-62
2022/04/05 00:32:50;;;;;;;23.65;13.10;;;;;;;9.57;85.97;100483.81;5030247;28;20472;-61
2022/04/05 00:35:18;;;;;;;24.08;12.48;;;;;;;9.58;85.65;100479.94;5021415;28;20469;-62
2022/04/05 00:37:46;;;;;;;23.35;13.70;;;;;;;9.57;86.02;100476.34;5025672;28;20041;-62
2022/04/05 00:40:12;;;;;;;19.33;13.30;;;;;;;9.57;86.34;100473.56;5022065;28;20483;-62
2022/04/05 00:42:37;;;;;;;22.83;13.00;;;;;;;9.58;85.84;100478.00;5013093;28;20029;-61
2022/04/05 00:45:05;;;;;;;24.15;13.05;;;;;;;9.58;86.02;100475.25;5039865;28;20029;-62
2022/04/05 00:47:30;;;;;;;28.55;13.52;;;;;;;9.58;86.20;100475.25;5038541;28;20036;-62
2022/04/05 00:49:56;;;;;;;25.90;13.00;;;;;;;9.59;86.22;100485.25;5038245;28;20033;-62
2022/04/05 00:52:22;;;;;;;24.48;13.18;;;;;;;9.58;86.10;100477.19;5033730;28;20496;-62
2022/04/05 00:54:50;;;;;;;23.17;13.55;;;;;;;9.58;86.30;100478.00;5032411;28;20547;-62
2022/04/05 00:57:18;;;;;;;22.58;12.70;;;;;;;9.59;85.98;100482.47;5029630;28;20514;-62
2022/04/05 00:59:46;;;;;;;20.05;12.10;;;;;;;9.59;86.44;100482.47;5019293;28;20033;-62
2022/04/05 01:02:14;;;;;;;22.27;12.88;;;;;;;9.58;86.41;100480.78;5032224;28;20029;-62
2022/04/05 01:04:59;;;;;;;18.92;12.70;;;;;;;9.59;86.44;100476.94;5037974;28;20045;-62
2022/04/05 01:07:27;;;;;;;24.27;12.85;;;;;;;9.61;86.26;100481.38;5053102;28;20089;-62
2022/04/05 01:09:56;;;;;;;23.60;12.98;;;;;;;9.59;86.57;100474.16;5055792;28;20021;-62
2022/04/05 01:12:22;;;;;;;21.52;13.70;;;;;;;9.61;86.42;100484.16;5041216;28;20033;-61
2022/04/05 01:14:48;;;;;;;20.85;13.00;;;;;;;9.61;85.97;100478.63;5047872;28;20029;-62
2022/04/05 01:17:15;;;;;;;18.75;12.50;;;;;;;9.62;86.43;100486.66;5049623;28;20027;-62
2022/04/05 01:19:40;;;;;;;22.70;14.02;;;;;;;9.62;86.39;100474.75;5050204;28;20096;-62
2022/04/05 01:22:06;;;;;;;22.48;13.73;;;;;;;9.63;86.14;100484.72;5043301;28;20453;-62
2022/04/05 01:24:32;;;;;;;27.40;14.80;;;;;;;9.60;86.06;100477.78;5050120;28;20025;-62
2022/04/05 01:26:59;;;;;;;24.90;13.57;;;;;;;9.63;86.14;100498.56;5052468;28;20025;-62
2022/04/05 01:29:26;;;;;;;23.83;13.75;;;;;;;9.62;86.05;100485.81;5053692;28;20063;-62
2022/04/05 01:31:52;;;;;;;22.45;13.68;;;;;;;9.65;85.63;100490.84;5053248;28;20099;-62
2022/04/05 01:34:23;;;;;;;25.55;13.35;;;;;;;9.62;86.33;100491.38;5053643;28;20523;-62
2022/04/05 01:36:53;;;;;;;18.95;12.68;;;;;;;9.62;85.88;100497.75;5039151;28;20025;-62
2022/04/05 01:39:24;;;;;;;23.73;13.40;;;;;;;9.62;86.21;100496.91;5053221;28;20029;-62
2022/04/05 01:41:57;;;;;;;25.65;12.63;;;;;;;9.62;86.25;100489.44;5053555;28;20429;-62
2022/04/05 01:44:24;;;;;;;22.63;14.05;;;;;;;9.62;85.81;100483.88;5053366;28;20047;-62
2022/04/05 01:47:09;;;;;;;19.13;12.38;;;;;;;9.67;85.69;100494.19;5052815;28;20032;-63
2022/04/05 01:49:43;;;;;;;18.33;12.98;;;;;;;9.66;85.61;100486.97;5053220;28;20037;-62
2022/04/05 01:52:10;;;;;;;23.45;13.20;;;;;;;9.66;85.72;100487.81;5053203;28;20411;-62
2022/04/05 01:54:35;;;;;;;19.27;12.82;;;;;;;9.65;85.46;100494.47;5041329;28;20029;-62
2022/04/05 01:57:01;;;;;;;24.08;13.90;;;;;;;9.65;85.54;100490.84;5051841;28;20498;-62
2022/04/05 01:59:29;;;;;;;19.63;12.43;;;;;;;9.65;85.84;100490.84;5053387;28;20029;-63
2022/04/05 02:01:55;;;;;;;22.52;13.02;;;;;;;9.62;86.17;100491.38;5052851;28;20037;-63
2022/04/05 02:04:21;;;;;;;22.65;12.43;;;;;;;9.59;85.57;100488.03;5073635;28;20079;-62
2022/04/05 02:06:46;;;;;;;19.55;13.30;;;;;;;9.56;86.08;100485.75;5053151;28;20037;-62
2022/04/05 02:09:14;;;;;;;22.05;12.77;;;;;;;9.62;85.80;100491.38;5052722;28;20514;-62
2022/04/05 02:11:44;;;;;;;21.67;13.38;;;;;;;9.63;85.96;100490.25;5040069;28;20119;-62
2022/04/05 02:14:11;;;;;;;18.15;12.35;;;;;;;9.59;85.76;100492.72;5052595;28;20056;-63
2022/04/05 02:16:36;;;;;;;19.30;12.43;;;;;;;9.64;85.93;100489.19;5050385;28;20034;-62
2022/04/05 02:19:01;;;;;;;20.75;13.32;;;;;;;9.64;85.41;100492.78;5049007;28;20087;-62
2022/04/05 02:21:27;;;;;;;19.05;11.55;;;;;;;9.65;85.91;100490.84;5051235;28;20032;-62
2022/04/05 02:23:52;;;;;;;18.70;11.80;;;;;;;9.66;85.47;100492.53;5052168;28;20481;-62
2022/04/05 02:26:17;;;;;;;17.92;11.77;;;;;;;9.67;85.17;100489.53;5052498;28;20348;-62
2022/04/05 02:28:43;;;;;;;18.55;11.50;;;;;;;9.69;85.28;100495.63;5044816;28;20117;-63
2022/04/05 02:31:09;;;;;;;15.98;10.80;;;;;;;9.70;85.26;100497.28;5052175;28;20052;-63
2022/04/05 02:33:37;;;;;;;20.27;10.82;;;;;;;9.69;85.43;100494.78;5053138;28;20043;-63
2022/04/05 02:36:05;;;;;;;19.58;10.95;;;;;;;9.69;85.12;100501.16;5044880;28;20031;-62
2022/04/05 02:38:34;;;;;;;19.85;11.40;;;;;;;9.71;85.28;100498.16;5052354;28;20082;-64
2022/04/05 02:41:02;;;;;;;20.20;11.77;;;;;;;9.70;85.44;100493.69;5052102;28;20021;-61
2022/04/05 02:43:27;;;;;;;17.83;11.43;;;;;;;9.71;84.88;100495.38;5052563;28;20029;-61
2022/04/05 02:45:56;;;;;;;23.23;12.35;;;;;;;9.71;85.20;100496.22;5051582;28;20036;-62
2022/04/05 02:48:25;;;;;;;18.55;12.00;;;;;;;9.72;85.01;100502.59;5052326;28;20464;-62
2022/04/05 02:50:51;;;;;;;16.45;11.38;;;;;;;9.71;85.09;100495.38;5051750;28;20024;-62
2022/04/05 02:53:17;;;;;;;16.10;11.63;;;;;;;9.71;85.01;100495.38;5041826;28;20033;-62
2022/04/05 02:55:42;;;;;;;18.45;11.95;;;;;;;9.73;84.79;100498.72;5033037;28;20034;-63
2022/04/05 02:58:08;;;;;;;19.55;12.23;;;;;;;9.72;84.86;100497.91;5043067;28;20029;-62
2022/04/05 03:00:33;;;;;;;24.75;12.43;;;;;;;9.73;84.88;100487.66;5052432;28;20029;-61
2022/04/05 03:02:59;;;;;;;18.98;12.50;;;;;;;9.73;84.41;100488.47;5051469;28;20416;-61
2022/04/05 03:05:24;;;;;;;20.60;12.57;;;;;;;9.75;84.57;100491.00;5052556;28;20040;-63
2022/04/05 03:07:49;;;;;;;21.92;12.90;;;;;;;9.78;84.86;100490.47;5062185;28;20093;-62
2022/04/05 03:10:15;;;;;;;17.33;11.55;;;;;;;9.77;84.67;100486.88;5043066;28;20029;-63
2022/04/05 03:12:40;;;;;;;19.60;12.57;;;;;;;9.74;84.59;100489.31;5063604;28;20112;-63
2022/04/05 03:15:07;;;;;;;20.95;12.27;;;;;;;9.77;84.90;100488.81;5072838;28;20111;-63
2022/04/05 03:17:33;;;;;;;18.15;11.50;;;;;;;9.76;84.90;100501.00;5064383;28;20032;-63
2022/04/05 03:20:00;;;;;;;20.00;12.70;;;;;;;9.72;84.65;100485.97;5052220;28;20076;-63
2022/04/05 03:22:28;;;;;;;16.55;10.98;;;;;;;9.76;84.81;100498.22;5052062;28;20025;-63
2022/04/05 03:24:53;;;;;;;21.33;12.38;;;;;;;9.75;84.58;100491.00;5049295;28;20081;-63
2022/04/05 03:27:18;;;;;;;18.42;11.80;;;;;;;9.74;84.62;100484.59;5052824;28;20112;-63
2022/04/05 03:29:44;;;;;;;18.38;11.05;;;;;;;9.75;84.94;100489.06;5051562;28;20434;-63
2022/04/05 03:32:11;;;;;;;19.42;11.07;;;;;;;9.76;84.71;100493.50;5049963;28;20036;-63
2022/04/05 03:34:37;;;;;;;21.42;12.40;;;;;;;9.77;84.36;100494.34;5051272;28;20076;-63
2022/04/05 03:37:02;;;;;;;13.95;11.18;;;;;;;9.79;84.22;100492.19;5049947;28;20068;-63
2022/04/05 03:39:28;;;;;;;18.33;12.65;;;;;;;9.77;84.09;100489.63;5051393;28;20025;-63
2022/04/05 03:41:54;;;;;;;20.48;12.65;;;;;;;9.78;84.67;100493.25;5051145;28;20021;-63
2022/04/05 03:44:19;;;;;;;16.17;10.63;;;;;;;9.78;84.23;100488.53;5051222;28;20429;-63
2022/04/05 03:46:45;;;;;;;17.98;11.73;;;;;;;9.78;84.62;100484.94;5045871;28;20159;-63
2022/04/05 03:49:10;;;;;;;21.23;11.73;;;;;;;9.73;84.07;100482.09;5051329;28;20464;-62
2022/04/05 03:51:35;;;;;;;16.10;11.10;;;;;;;9.76;84.61;100493.50;5051341;28;20383;-63
2022/04/05 03:54:01;;;;;;;20.05;11.40;;;;;;;9.76;84.44;100484.38;5045185;28;20025;-62
2022/04/05 03:56:29;;;;;;;17.70;11.38;;;;;;;9.78;84.53;100484.94;5046505;28;20020;-63
2022/04/05 03:58:54;;;;;;;20.17;12.27;;;;;;;9.74;84.32;100486.53;5051274;28;20037;-63
2022/04/05 04:01:20;;;;;;;19.05;11.00;;;;;;;9.73;84.41;100477.38;5050405;28;20047;-63
2022/04/05 04:03:45;;;;;;;20.52;11.77;;;;;;;9.74;84.33;100492.91;5050938;28;20051;-62
2022/04/05 04:06:13;;;;;;;14.48;10.35;;;;;;;9.76;84.51;100482.44;5045156;28;20017;-62
2022/04/05 04:08:39;;;;;;;17.38;10.68;;;;;;;9.75;83.98;100486.31;5031210;28;20033;-63
2022/04/05 04:11:04;;;;;;;15.52;11.05;;;;;;;9.76;84.31;100487.97;5043183;28;20033;-62
2022/04/05 04:13:29;;;;;;;19.83;10.85;;;;;;;9.78;84.18;100484.94;5050177;28;20110;-62
2022/04/05 04:15:57;;;;;;;15.45;10.68;;;;;;;9.79;83.74;100481.09;5051120;28;20036;-62
2022/04/05 04:18:23;;;;;;;14.35;10.45;;;;;;;9.80;84.01;100488.28;5051073;28;20036;-63
2022/04/05 04:20:48;;;;;;;15.30;11.02;;;;;;;9.82;83.95;100480.53;5050006;28;20482;-62
2022/04/05 04:23:15;;;;;;;14.45;10.23;;;;;;;9.83;84.12;100485.84;5056516;28;20025;-62
2022/04/05 04:25:41;;;;;;;15.80;10.48;;;;;;;9.82;83.69;100486.09;5047913;28;20053;-62
2022/04/05 04:28:07;;;;;;;12.48;9.63;;;;;;;9.83;83.46;100485.03;5041171;28;20099;-62
2022/04/05 04:30:34;;;;;;;15.32;10.13;;;;;;;9.80;83.63;100479.97;5043172;28;20422;-62
2022/04/05 04:33:00;;;;;;;14.85;10.63;;;;;;;9.81;83.49;100478.88;5050767;28;20036;-62
2022/04/05 04:35:26;;;;;;;14.45;10.77;;;;;;;9.81;83.95;100476.94;5048776;28;20027;-62
2022/04/05 04:37:51;;;;;;;15.23;10.18;;;;;;;9.84;83.44;100478.38;5050404;28;20029;-62
2022/04/05 04:40:18;;;;;;;12.32;9.95;;;;;;;9.84;83.91;100490.28;5049980;28;20025;-62
2022/04/05 04:42:43;;;;;;;15.38;10.60;;;;;;;9.85;83.32;100480.03;5042838;28;20113;-62
2022/04/05 04:45:09;;;;;;;14.98;10.85;;;;;;;9.85;83.34;100480.03;5046490;28;20526;-63
2022/04/05 04:47:35;;;;;;;15.80;11.15;;;;;;;9.87;83.77;100493.66;5050701;28;20033;-62
2022/04/05 04:50:00;;;;;;;13.40;10.52;;;;;;;9.86;83.83;100489.19;5048413;28;20055;-61
2022/04/05 04:52:29;;;;;;;15.27;10.20;;;;;;;9.84;83.66;100492.22;5051048;28;20127;-61
2022/04/05 04:54:57;;;;;;;16.13;10.40;;;;;;;9.86;84.02;100494.72;5049807;28;20029;-62
2022/04/05 04:57:23;;;;;;;14.40;10.65;;;;;;;9.86;83.92;100497.50;5049224;28;20075;-62
2022/04/05 04:59:49;;;;;;;13.77;10.57;;;;;;;9.87;83.64;100493.66;5045632;28;20039;-62
2022/04/05 05:02:15;;;;;;;14.18;10.18;;;;;;;9.86;83.61;100489.19;5049546;28;20037;-63
2022/04/05 05:04:40;;;;;;;15.38;10.77;;;;;;;9.86;83.57;100487.25;5055407;28;20124;-62
2022/04/05 05:07:06;;;;;;;16.92;10.90;;;;;;;9.89;83.87;100491.44;5050499;28;20063;-62
2022/04/05 05:09:31;;;;;;;14.50;10.93;;;;;;;9.88;83.76;100487.84;5038152;28;20021;-62
2022/04/05 05:11:57;;;;;;;16.95;10.30;;;;;;;9.87;84.03;100500.03;5040524;28;20032;-61
2022/04/05 05:14:22;;;;;;;13.88;10.98;;;;;;;9.84;84.19;100492.22;5047620;28;20396;-61
2022/04/05 05:16:50;;;;;;;16.63;11.27;;;;;;;9.83;83.81;100496.09;5046111;28;20039;-62
2022/04/05 05:19:15;;;;;;;12.65;10.05;;;;;;;9.83;84.22;100498.88;5049492;28;20036;-62
2022/04/05 05:21:41;;;;;;;14.90;10.95;;;;;;;9.83;83.75;100496.94;5048840;28;20025;-62
2022/04/05 05:24:06;;;;;;;14.77;10.73;;;;;;;9.82;84.35;100502.72;5049298;28;20419;-62
2022/04/05 05:26:31;;;;;;;12.77;10.20;;;;;;;9.83;84.14;100501.66;5050167;28;20037;-62
2022/04/05 05:28:57;;;;;;;12.77;10.30;;;;;;;9.85;84.00;100507.75;5053258;28;20040;-62
2022/04/05 05:31:22;;;;;;;14.18;10.02;;;;;;;9.88;83.96;100506.41;5051886;28;20033;-62
2022/04/05 05:33:47;;;;;;;12.15;10.45;;;;;;;9.88;83.94;100506.41;5049268;28;20033;-61
2022/04/05 05:36:13;;;;;;;13.00;10.55;;;;;;;9.87;84.07;100499.22;5050607;28;20440;-61
2022/04/05 05:38:38;;;;;;;13.15;10.48;;;;;;;9.87;83.73;100508.34;5039778;28;20029;-61
2022/04/05 05:41:04;;;;;;;12.43;9.65;;;;;;;9.87;83.98;100500.03;5046675;28;20493;-62
2022/04/05 05:43:29;;;;;;;12.15;10.95;;;;;;;9.87;84.02;100511.13;5049445;28;20037;-62
2022/04/05 05:45:55;;;;;;;12.30;10.65;;;;;;;9.89;83.97;100511.69;5031743;28;20159;-63
2022/04/05 05:48:20;;;;;;;13.57;10.85;;;;;;;9.88;84.11;100518.34;5048492;28;20104;-62
2022/04/05 05:50:46;;;;;;;18.25;11.38;;;;;;;9.84;84.09;100520.78;5046980;28;20112;-61
2022/04/05 05:53:12;;;;;;;17.50;11.32;;;;;;;9.83;84.14;100515.50;5047960;28;20382;-60
2022/04/05 05:55:37;;;;;;;16.35;11.55;;;;;;;9.87;84.08;100526.94;5056361;28;20020;-60
2022/04/05 05:58:06;;;;;;;16.90;12.00;;;;;;;9.87;83.97;100519.44;5041750;28;20029;-61
2022/04/05 06:00:31;;;;;;;17.55;12.45;;;;;;;9.87;83.92;100526.94;5042936;28;20103;-62
2022/04/05 06:03:01;;;;;;;18.35;12.88;;;;;;;9.88;83.95;100529.44;5041858;28;20033;-59
2022/04/05 06:05:30;;;;;;;16.02;12.18;;;;;;;9.87;83.82;100522.22;5050233;28;20059;-61
2022/04/05 06:07:56;;;;;;;15.02;12.07;;;;;;;9.88;84.25;100529.44;5047969;28;20020;-60
2022/04/05 06:10:22;;;;;;;15.38;11.90;;;;;;;9.88;83.91;100529.44;5055046;28;20427;-61
2022/04/05 06:12:49;;;;;;;16.70;12.50;;;;;;;9.90;83.82;100526.38;5049975;28;20029;-61
2022/04/05 06:15:15;;;;;;;17.48;11.43;;;;;;;9.92;83.59;100529.75;5050350;28;20032;-61
2022/04/05 06:17:49;;;;;;;17.30;12.40;;;;;;;9.91;83.93;100523.38;5049819;28;20037;-61
2022/04/05 06:20:18;;;;;;;17.45;12.23;;;;;;;9.91;83.60;100539.19;5036515;28;20044;-61
2022/04/05 06:22:44;;;;;;;17.27;11.40;;;;;;;9.91;83.39;100534.47;5040988;28;20044;-62
2022/04/05 06:25:12;;;;;;;17.08;12.25;;;;;;;9.92;83.58;100536.13;5037101;28;20021;-61
2022/04/05 06:27:38;;;;;;;17.30;11.93;;;;;;;9.93;83.70;100536.97;5045148;28;20037;-61
2022/04/05 06:30:05;;;;;;;17.30;11.88;;;;;;;9.91;83.61;100533.63;5048901;28;20522;-60
2022/04/05 06:32:30;;;;;;;17.00;11.30;;;;;;;9.91;83.18;100540.00;5047550;28;20034;-60
2022/04/05 06:34:56;;;;;;;14.20;10.73;;;;;;;9.93;83.02;100542.50;5054845;28;20097;-59
2022/04/05 06:37:21;;;;;;;15.43;10.75;;;;;;;9.94;83.05;100544.19;5051593;28;20090;-61
2022/04/05 06:39:48;;;;;;;14.52;11.18;;;;;;;9.95;82.82;100545.88;5039503;28;20121;-60
2022/04/05 06:42:13;;;;;;;16.58;10.63;;;;;;;9.93;83.29;100545.28;5040069;28;20076;-61
2022/04/05 06:44:41;;;;;;;15.05;10.20;;;;;;;9.94;83.19;100550.59;5048460;28;20049;-60
2022/04/05 06:47:08;;;;;;;16.80;10.43;;;;;;;9.94;83.16;100546.97;5039782;28;20025;-60
2022/04/05 06:49:34;;;;;;;13.45;10.20;;;;;;;9.99;82.83;100553.44;5046790;28;20021;-61
2022/04/05 06:52:02;;;;;;;13.20;10.35;;;;;;;9.96;82.88;100553.09;5048315;28;20494;-61
2022/04/05 06:54:27;;;;;;;15.25;9.77;;;;;;;9.97;82.78;100557.53;5039407;28;20061;-61
2022/04/05 06:56:58;;;;;;;16.00;9.27;;;;;;;10.01;82.72;100562.31;5045914;28;20122;-61
2022/04/05 06:59:24;;;;;;;15.32;10.05;;;;;;;10.02;82.78;100557.59;5045512;28;20033;-61
2022/04/05 07:01:49;;;;;;;13.57;9.20;;;;;;;10.01;82.99;100562.31;5041230;28;20032;-61
2022/04/05 07:04:17;;;;;;;14.40;9.10;;;;;;;10.03;82.63;100570.41;5036820;28;20537;-61
2022/04/05 07:06:43;;;;;;;13.73;8.60;;;;;;;10.02;82.72;100572.34;5030860;28;20052;-61
2022/04/05 07:09:09;;;;;;;12.75;9.10;;;;;;;10.04;82.55;100572.06;5042642;28;20488;-62
2022/04/05 07:11:37;;;;;;;10.70;9.07;;;;;;;9.99;83.20;100570.06;5044866;28;20424;-61
2022/04/05 07:14:02;;;;;;;16.05;9.50;;;;;;;10.01;82.46;100561.47;5048942;28;20384;-65
2022/04/05 07:16:28;;;;;;;12.85;9.10;;;;;;;10.05;82.44;100574.56;5045247;28;20041;-63
2022/04/05 07:18:53;;;;;;;16.33;8.70;;;;;;;10.06;82.38;100573.50;5048235;28;20107;-64
2022/04/05 07:21:20;;;;;;;15.55;8.43;;;;;;;10.05;82.37;100568.19;5048048;28;21673;-62
2022/04/05 07:23:49;;;;;;;14.23;8.68;;;;;;;10.08;82.68;100574.06;5041675;28;20037;-63
2022/04/05 07:26:14;;;;;;;13.43;8.55;;;;;;;10.08;82.22;100571.28;5051822;28;20287;-63
2022/04/05 07:28:40;;;;;;;15.35;8.25;;;;;;;10.10;82.50;100568.28;5053377;28;20540;-60
2022/04/05 07:31:05;;;;;;;15.45;8.93;;;;;;;10.11;82.17;100564.41;5049214;28;20090;-61
2022/04/05 07:33:31;;;;;;;13.07;7.45;;;;;;;10.14;81.90;100560.25;5054882;28;20033;-63
2022/04/05 07:35:57;;;;;;;12.02;8.13;;;;;;;10.09;82.00;100556.31;5050826;28;20074;-61
2022/04/05 07:38:22;;;;;;;11.77;8.07;;;;;;;10.08;82.09;100556.59;5049776;28;20036;-60
2022/04/05 07:40:52;;;;;;;14.00;8.05;;;;;;;10.07;82.15;100564.06;5041335;28;20036;-62
2022/04/05 07:43:23;;;;;;;8.93;7.40;;;;;;;10.08;82.18;100554.66;5037918;28;20021;-61
2022/04/05 07:45:49;;;;;;;13.10;8.38;;;;;;;10.07;82.16;100554.91;5062638;28;20036;-61
2022/04/05 07:48:19;;;;;;;10.25;7.88;;;;;;;10.11;82.29;100560.78;5049481;28;20029;-60
2022/04/05 07:50:45;;;;;;;11.55;8.10;;;;;;;10.10;82.19;100565.50;5035351;28;20030;-61
2022/04/05 07:53:11;;;;;;;12.35;7.82;;;;;;;10.13;82.12;100561.34;5048673;28;20032;-60
2022/04/05 07:55:36;;;;;;;10.38;7.07;;;;;;;10.12;81.68;100563.28;5047630;28;20025;-60
2022/04/05 07:58:01;;;;;;;13.55;7.45;;;;;;;10.13;81.91;100564.13;5050106;28;20090;-61
2022/04/05 08:00:28;;;;;;;11.75;6.97;;;;;;;10.13;82.10;100575.22;5047416;28;20472;-61
2022/04/05 08:02:53;;;;;;;13.55;7.68;;;;;;;10.14;82.56;100574.13;5047145;28;20098;-61
2022/04/05 08:05:19;;;;;;;14.30;7.18;;;;;;;10.15;82.03;100573.03;5051341;28;20495;-61
2022/04/05 08:07:46;;;;;;;14.85;7.15;;;;;;;10.15;82.45;100570.28;5050920;28;20055;-61
2022/04/05 08:10:13;;;;;;;11.07;7.20;;;;;;;10.18;82.02;100567.81;5048913;28;20795;-61
2022/04/05 08:12:43;;;;;;;11.88;6.65;;;;;;;10.21;82.05;100564.50;5048751;28;20103;-61
2022/04/05 08:15:10;;;;;;;11.98;7.05;;;;;;;10.20;81.78;100573.94;5054999;28;20083;-61
2022/04/05 08:17:35;;;;;;;10.60;7.80;;;;;;;10.21;81.42;100567.28;5042985;28;20037;-61
2022/04/05 08:20:01;;;;;;;15.93;7.72;;;;;;;10.24;81.86;100561.22;5041889;28;21027;-60
2022/04/05 08:22:26;;;;;;;27.30;7.57;;;;;;;10.22;81.63;100576.47;5051165;28;20057;-60
2022/04/05 08:24:55;;;;;;;14.15;7.32;;;;;;;10.27;81.70;100576.56;5040109;28;20358;-61
2022/04/05 08:27:20;;;;;;;9.98;6.72;;;;;;;10.24;81.59;100577.03;5049605;28;20035;-60
2022/04/05 08:29:45;;;;;;;11.15;6.90;;;;;;;10.27;81.62;100579.34;5051120;28;20036;-61
2022/04/05 08:32:11;;;;;;;9.50;6.70;;;;;;;10.30;81.74;100584.38;5051888;28;20025;-61
2022/04/05 08:34:41;;;;;;;11.98;6.72;;;;;;;10.29;81.72;100583.50;5049517;28;20039;-61
2022/04/05 08:37:09;;;;;;;14.75;7.30;;;;;;;10.31;81.94;100581.34;5031479;28;20107;-60
2022/04/05 08:39:37;;;;;;;11.38;6.95;;;;;;;10.35;81.46;100581.66;5032190;28;20275;-61
2022/04/05 08:42:04;;;;;;;8.68;6.85;;;;;;;10.33;81.90;100581.06;5033402;28;20044;-60
2022/04/05 08:44:30;;;;;;;9.43;6.95;;;;;;;10.37;81.63;100587.78;5050226;28;20364;-60
2022/04/05 08:46:58;;;;;;;11.93;7.38;;;;;;;10.35;81.70;100587.22;5049775;28;20067;-60
2022/04/05 08:49:24;;;;;;;13.20;7.07;;;;;;;10.42;81.85;100587.84;5047620;28;20040;-59
2022/04/05 08:51:50;;;;;;;13.43;7.38;;;;;;;10.42;81.93;100584.25;5050401;28;20029;-61
2022/04/05 08:54:15;;;;;;;11.10;6.50;;;;;;;10.45;81.58;100592.91;5037957;28;20349;-59
2022/04/05 08:56:41;;;;;;;9.05;6.30;;;;;;;10.49;81.26;100584.88;5039419;28;20043;-62
2022/04/05 08:59:06;;;;;;;9.82;6.45;;;;;;;10.53;81.43;100586.88;5048699;28;20028;-62
2022/04/05 09:01:34;;;;;;;9.45;6.57;;;;;;;10.55;81.52;100589.38;5049168;28;20645;-62
2022/04/05 09:04:17;;;;;;;7.35;6.22;;;;;;;10.55;81.35;100589.38;5049795;28;20049;-62
2022/04/05 09:06:43;;;;;;;8.80;7.32;;;;;;;10.55;81.31;100593.00;5049969;28;20123;-62
2022/04/05 09:09:12;;;;;;;10.25;6.85;;;;;;;10.54;81.30;100596.88;5045965;28;20100;-62
2022/04/05 09:11:48;;;;;;;9.98;6.55;;;;;;;10.54;81.51;100588.56;5034556;28;20029;-62
2022/04/05 09:14:21;;;;;;;9.63;6.43;;;;;;;10.56;81.92;100602.16;5050119;28;20044;-63
2022/04/05 09:16:46;;;;;;;9.43;6.57;;;;;;;10.57;82.15;100599.16;5048201;28;20464;-62
2022/04/05 09:19:15;;;;;;;10.75;7.20;;;;;;;10.55;82.09;100606.03;5041978;28;20068;-62
2022/04/05 09:21:57;;;;;;;9.82;7.13;;;;;;;10.56;82.29;100602.16;5034599;28;20033;-63
2022/04/05 09:24:36;;;;;;;10.23;7.78;;;;;;;10.55;82.77;100604.09;5049137;28;20064;-62
2022/04/05 09:27:04;;;;;;;9.23;7.28;;;;;;;10.57;82.67;100603.81;5053246;28;20017;-62
2022/04/05 09:29:39;;;;;;;10.48;7.78;;;;;;;10.58;82.49;100602.75;5066949;28;20032;-62
2022/04/05 09:32:05;;;;;;;12.20;7.68;;;;;;;10.63;82.73;100607.53;5047380;28;20116;-63
2022/04/05 09:34:30;;;;;;;9.52;7.07;;;;;;;10.65;82.56;100610.84;5044808;28;20231;-62
2022/04/05 09:36:56;;;;;;;12.07;7.50;;;;;;;10.68;82.85;100615.91;5044968;28;20498;-63
2022/04/05 09:39:25;;;;;;;13.98;8.27;;;;;;;10.70;83.11;100619.28;5047049;28;20456;-62
2022/04/05 09:42:05;;;;;;;12.68;7.47;;;;;;;10.70;82.69;100610.94;5052579;28;20033;-62
2022/04/05 09:44:34;;;;;;;10.82;7.82;;;;;;;10.69;83.19;100618.44;5043950;28;20037;-62
2022/04/05 09:47:11;;;;;;;11.32;8.32;;;;;;;10.72;83.32;100617.06;5040432;28;20029;-62
2022/04/05 09:49:38;;;;;;;9.73;7.68;;;;;;;10.73;83.37;100624.31;5046594;28;20127;-62
2022/04/05 09:52:42;;;;;;;9.68;7.50;;;;;;;10.79;82.86;100618.53;5048221;28;20032;-63
2022/04/05 09:55:15;;;;;;;11.65;7.40;;;;;;;10.78;83.62;100610.47;5044232;28;20041;-61
2022/04/05 09:57:41;;;;;;;13.00;8.20;;;;;;;10.76;83.47;100619.03;5048783;28;20051;-61
2022/04/05 10:00:17;;;;;;;12.45;7.80;;;;;;;10.73;83.69;100616.81;5051932;28;20028;-61
2022/04/05 10:03:06;;;;;;;11.10;7.63;;;;;;;10.76;83.49;100615.44;5050628;28;20106;-62
2022/04/05 10:05:36;;;;;;;10.90;7.20;;;;;;;10.75;83.63;100616.53;5037294;28;20139;-63
2022/04/05 10:08:05;;;;;;;11.63;7.53;;;;;;;10.76;83.59;100615.44;5047421;28;20027;-63
2022/04/05 10:10:33;;;;;;;12.32;7.85;;;;;;;10.75;83.29;100625.72;5061762;28;20435;-63
2022/04/05 10:13:12;;;;;;;11.05;7.50;;;;;;;10.77;83.22;100622.69;5048106;28;20033;-63
2022/04/05 10:15:39;;;;;;;11.15;7.20;;;;;;;10.82;83.60;100619.97;5052499;28;20037;-63
2022/04/05 10:18:06;;;;;;;10.00;7.45;;;;;;;10.81;83.42;100621.06;5051046;28;20064;-62
2022/04/05 10:20:34;;;;;;;8.40;6.45;;;;;;;10.84;82.74;100623.31;5050310;28;20029;-62
2022/04/05 10:23:02;;;;;;;8.82;6.35;;;;;;;10.85;82.80;100625.00;5043020;28;20029;-61
2022/04/05 10:25:29;;;;;;;8.63;6.70;;;;;;;10.90;82.54;100625.03;5048272;28;20068;-61
2022/04/05 10:27:54;;;;;;;8.88;3.72;;;;;;;11.22;81.17;100618.69;5055744;28;20029;-62
2022/04/05 10:30:26;;;;;;;9.43;6.22;;;;;;;11.10;81.68;100618.03;5046139;28;20078;-64
2022/04/05 10:32:55;;;;;;;7.90;5.78;;;;;;;11.10;81.96;100623.59;5053771;28;20029;-61
2022/04/05 10:35:23;;;;;;;6.72;5.88;;;;;;;11.07;82.41;100620.22;5043428;28;20040;-63
2022/04/05 10:37:49;;;;;;;11.05;6.65;;;;;;;11.04;82.40;100609.66;5046919;28;20028;-62
2022/04/05 10:40:19;;;;;;;8.77;6.82;;;;;;;11.05;82.33;100622.44;5047688;28;20102;-62
2022/04/05 10:42:49;;;;;;;8.00;5.90;;;;;;;11.04;81.97;100614.34;5044695;28;20029;-62
2022/04/05 10:45:17;;;;;;;7.25;5.80;;;;;;;11.06;81.91;100621.31;5050367;28;20076;-63
2022/04/05 10:48:13;;;;;;;10.60;6.30;;;;;;;11.09;82.02;100606.09;5053382;28;20025;-62
2022/04/05 10:50:41;;;;;;;9.30;6.43;;;;;;;11.10;82.15;100615.25;5042514;28;20147;-62
2022/04/05 10:53:19;;;;;;;7.38;5.78;;;;;;;11.07;81.61;100609.09;5046021;28;20061;-62
2022/04/05 10:56:02;;;;;;;9.73;6.30;;;;;;;11.14;81.52;100596.97;5046661;28;20029;-64
2022/04/05 10:58:31;;;;;;;7.07;5.90;;;;;;;11.17;81.59;100608.38;5041511;28;20029;-62
2022/04/05 11:01:43;;;;;;;10.35;5.88;;;;;;;11.20;81.53;100605.09;5041843;28;20052;-61
2022/04/05 11:04:16;;;;;;;9.30;5.47;;;;;;;11.18;80.70;100610.06;5047087;28;20041;-62
2022/04/05 11:06:59;;;;;;;6.38;5.05;;;;;;;11.22;80.92;100602.03;5042390;28;20029;-62
2022/04/05 11:09:26;;;;;;;8.52;5.55;;;;;;;11.22;81.01;100602.88;5051572;28;20090;-63
2022/04/05 11:11:53;;;;;;;7.43;5.53;;;;;;;11.23;81.09;100601.75;5050212;28;20384;-63
2022/04/05 11:14:38;;;;;;;6.72;5.20;;;;;;;11.27;81.72;100613.19;5053193;28;20041;-63
2022/04/05 11:17:06;;;;;;;7.13;5.47;;;;;;;11.22;81.92;100611.19;5049532;28;20033;-63
2022/04/05 11:19:35;;;;;;;9.25;5.35;;;;;;;11.22;81.40;100618.69;5051856;28;20532;-64
2022/04/05 11:22:05;;;;;;;6.93;5.20;;;;;;;11.23;81.00;100615.66;5044230;28;20049;-64